KAY409A LPMA-LPPR
Flight info
| Callsign | KAY409A |
|---|---|
| Flight time | 1h 44m |
| Altitude | 38000 |
| Route | DEGUN DCT VABEM DCT ASMAR DCT DIRMA DCT ASMOV |
| Aircraft | A319/M-SDE3FGHIRWY/LB1 |
Departure
| Time | 2026-05-07 00:20 |
|---|---|
| Airport | Cristiano Ronaldo International Airport (LPMA) |
Arrival
| Time | 2026-05-07 02:04 |
|---|---|
| Airport | Francisco de Sá Carneiro Airport (LPPR) |
| Time | Latitude | Longitude | Altitude | Speed | Heading |
|---|---|---|---|---|---|
| 2026-05-07 00:09 | 32.69591 | -16.77384 | 169 ft | 0 kts | 281° |
| 2026-05-07 00:15 | 32.69592 | -16.77387 | 169 ft | 2 kts | 281° |
| 2026-05-07 00:15 | 32.69601 | -16.77441 | 169 ft | 10 kts | 274° |
| 2026-05-07 00:15 | 32.69557 | -16.77525 | 169 ft | 15 kts | 226° |
| 2026-05-07 00:15 | 32.69473 | -16.77629 | 169 ft | 20 kts | 226° |
| 2026-05-07 00:16 | 32.69370 | -16.77756 | 169 ft | 18 kts | 226° |
| 2026-05-07 00:16 | 32.69295 | -16.77846 | 169 ft | 17 kts | 237° |
| 2026-05-07 00:16 | 32.69289 | -16.77982 | 169 ft | 18 kts | 268° |
| 2026-05-07 00:16 | 32.69213 | -16.78117 | 166 ft | 23 kts | 225° |
| 2026-05-07 00:17 | 32.69079 | -16.78271 | 159 ft | 30 kts | 223° |
| 2026-05-07 00:17 | 32.68936 | -16.78398 | 154 ft | 17 kts | 194° |
| 2026-05-07 00:17 | 32.68907 | -16.78466 | 154 ft | 11 kts | 348° |
| 2026-05-07 00:17 | 32.68943 | -16.78433 | 154 ft | 8 kts | 45° |
| 2026-05-07 00:18 | 32.68954 | -16.78421 | 154 ft | 0 kts | 45° |
| 2026-05-07 00:18 | 32.68956 | -16.78419 | 154 ft | 1 kts | 36° |
| 2026-05-07 00:19 | 32.68972 | -16.78399 | 154 ft | 7 kts | 44° |
| 2026-05-07 00:19 | 32.69148 | -16.78194 | 163 ft | 83 kts | 45° |
| 2026-05-07 00:19 | 32.69523 | -16.77753 | 175 ft | 140 kts | 44° |
| 2026-05-07 00:19 | 32.70282 | -16.76832 | 779 ft | 163 kts | 45° |
| 2026-05-07 00:20 | 32.70943 | -16.75667 | 1728 ft | 180 kts | 64° |
| 2026-05-07 00:20 | 32.71228 | -16.74130 | 2546 ft | 206 kts | 86° |
| 2026-05-07 00:20 | 32.71003 | -16.72321 | 3219 ft | 240 kts | 108° |
| 2026-05-07 00:20 | 32.70337 | -16.70354 | 3889 ft | 274 kts | 111° |
| 2026-05-07 00:21 | 32.69572 | -16.68150 | 4556 ft | 294 kts | 111° |
| 2026-05-07 00:21 | 32.68822 | -16.65992 | 5176 ft | 274 kts | 111° |
| 2026-05-07 00:21 | 32.68073 | -16.63854 | 5813 ft | 279 kts | 111° |
| 2026-05-07 00:21 | 32.67329 | -16.61727 | 6462 ft | 281 kts | 111° |
| 2026-05-07 00:22 | 32.66564 | -16.59544 | 7226 ft | 289 kts | 112° |
| 2026-05-07 00:22 | 32.65819 | -16.57330 | 8548 ft | 291 kts | 105° |
| 2026-05-07 00:22 | 32.65649 | -16.54961 | 9732 ft | 296 kts | 79° |
| 2026-05-07 00:22 | 32.66351 | -16.52657 | 10719 ft | 305 kts | 54° |
| 2026-05-07 00:23 | 32.67771 | -16.50687 | 11310 ft | 327 kts | 40° |
| 2026-05-07 00:23 | 32.69535 | -16.48836 | 11952 ft | 346 kts | 37° |
| 2026-05-07 00:23 | 32.71384 | -16.46955 | 12993 ft | 354 kts | 38° |
| 2026-05-07 00:23 | 32.73243 | -16.44987 | 14054 ft | 361 kts | 39° |
| 2026-05-07 00:24 | 32.75097 | -16.42941 | 15015 ft | 366 kts | 40° |
| 2026-05-07 00:24 | 32.76956 | -16.40838 | 16001 ft | 372 kts | 40° |
| 2026-05-07 00:24 | 32.78833 | -16.38692 | 16955 ft | 377 kts | 41° |
| 2026-05-07 00:24 | 32.80714 | -16.36533 | 17897 ft | 383 kts | 41° |
| 2026-05-07 00:25 | 32.82646 | -16.34315 | 18765 ft | 388 kts | 40° |
| 2026-05-07 00:25 | 32.84549 | -16.32128 | 19578 ft | 393 kts | 40° |
| 2026-05-07 00:25 | 32.86577 | -16.29797 | 20401 ft | 398 kts | 40° |
| 2026-05-07 00:25 | 32.88555 | -16.27523 | 21199 ft | 403 kts | 40° |
| 2026-05-07 00:26 | 32.90612 | -16.25159 | 22003 ft | 408 kts | 40° |
| 2026-05-07 00:26 | 32.92637 | -16.22833 | 22785 ft | 413 kts | 39° |
| 2026-05-07 00:26 | 32.94715 | -16.20444 | 23562 ft | 418 kts | 39° |
| 2026-05-07 00:26 | 32.96822 | -16.18021 | 24251 ft | 422 kts | 39° |
| 2026-05-07 00:27 | 32.98939 | -16.15583 | 24958 ft | 425 kts | 39° |
| 2026-05-07 00:27 | 33.01075 | -16.13122 | 25638 ft | 428 kts | 39° |
| 2026-05-07 00:27 | 33.03225 | -16.10644 | 26292 ft | 432 kts | 39° |
| 2026-05-07 00:27 | 33.05390 | -16.08149 | 26922 ft | 435 kts | 39° |
| 2026-05-07 00:28 | 33.07579 | -16.05624 | 27551 ft | 439 kts | 38° |
| 2026-05-07 00:28 | 33.09786 | -16.03076 | 28155 ft | 442 kts | 38° |
| 2026-05-07 00:28 | 33.12003 | -16.00514 | 28731 ft | 445 kts | 38° |
| 2026-05-07 00:28 | 33.14210 | -15.97963 | 29279 ft | 449 kts | 38° |
| 2026-05-07 00:29 | 33.16460 | -15.95359 | 29823 ft | 452 kts | 38° |
| 2026-05-07 00:29 | 33.18726 | -15.92735 | 30340 ft | 455 kts | 38° |
| 2026-05-07 00:30 | 33.25585 | -15.84779 | 31902 ft | 459 kts | 38° |
| 2026-05-07 00:30 | 33.27874 | -15.82117 | 32554 ft | 457 kts | 38° |
| 2026-05-07 00:30 | 33.30149 | -15.79469 | 33200 ft | 455 kts | 38° |
| 2026-05-07 00:30 | 33.32410 | -15.76837 | 33831 ft | 453 kts | 37° |
| 2026-05-07 00:31 | 33.34665 | -15.74212 | 34406 ft | 451 kts | 37° |
| 2026-05-07 00:31 | 33.36917 | -15.71589 | 34912 ft | 450 kts | 37° |
| 2026-05-07 00:31 | 33.39173 | -15.69006 | 35403 ft | 447 kts | 35° |
| 2026-05-07 00:31 | 33.41536 | -15.66609 | 35877 ft | 442 kts | 31° |
| 2026-05-07 00:32 | 33.43962 | -15.64461 | 36327 ft | 438 kts | 27° |
| 2026-05-07 00:32 | 33.46506 | -15.62490 | 36786 ft | 434 kts | 24° |
| 2026-05-07 00:32 | 33.49098 | -15.60649 | 37239 ft | 433 kts | 24° |
| 2026-05-07 00:32 | 33.51685 | -15.58806 | 37690 ft | 432 kts | 24° |
| 2026-05-07 00:33 | 33.54267 | -15.56963 | 38086 ft | 431 kts | 24° |
| 2026-05-07 00:33 | 33.56843 | -15.55121 | 38108 ft | 430 kts | 24° |
| 2026-05-07 00:33 | 33.61962 | -15.51454 | 38105 ft | 429 kts | 24° |
| 2026-05-07 00:34 | 33.67085 | -15.47780 | 38106 ft | 429 kts | 24° |
| 2026-05-07 00:34 | 33.72201 | -15.44103 | 38101 ft | 429 kts | 24° |
| 2026-05-07 00:35 | 33.77327 | -15.40413 | 38105 ft | 429 kts | 24° |
| 2026-05-07 00:35 | 33.82447 | -15.36723 | 38104 ft | 429 kts | 24° |
| 2026-05-07 00:36 | 33.87539 | -15.33047 | 38105 ft | 429 kts | 24° |
| 2026-05-07 00:36 | 33.92691 | -15.29323 | 38100 ft | 429 kts | 24° |
| 2026-05-07 00:37 | 33.97776 | -15.25643 | 38098 ft | 429 kts | 24° |
| 2026-05-07 00:37 | 34.02895 | -15.21932 | 38100 ft | 429 kts | 24° |
| 2026-05-07 00:38 | 34.08025 | -15.18207 | 38101 ft | 429 kts | 24° |
| 2026-05-07 00:38 | 34.13139 | -15.14489 | 38099 ft | 429 kts | 24° |
| 2026-05-07 00:39 | 34.18265 | -15.10757 | 38098 ft | 429 kts | 24° |
| 2026-05-07 00:39 | 34.23382 | -15.07027 | 38095 ft | 430 kts | 24° |
| 2026-05-07 00:40 | 34.28502 | -15.03288 | 38097 ft | 429 kts | 24° |
| 2026-05-07 00:40 | 34.33594 | -14.99565 | 38098 ft | 429 kts | 24° |
| 2026-05-07 00:41 | 34.38701 | -14.95825 | 38097 ft | 429 kts | 24° |
| 2026-05-07 00:41 | 34.43816 | -14.92074 | 38093 ft | 429 kts | 24° |
| 2026-05-07 00:42 | 34.48928 | -14.88320 | 38095 ft | 429 kts | 24° |
| 2026-05-07 00:42 | 34.54038 | -14.84562 | 38089 ft | 429 kts | 24° |
| 2026-05-07 00:43 | 34.59114 | -14.80823 | 38088 ft | 429 kts | 24° |
| 2026-05-07 00:43 | 34.64223 | -14.77055 | 38089 ft | 429 kts | 24° |
| 2026-05-07 00:44 | 34.69328 | -14.73284 | 38086 ft | 429 kts | 24° |
| 2026-05-07 00:44 | 34.74445 | -14.69499 | 38085 ft | 430 kts | 24° |
| 2026-05-07 00:45 | 34.79549 | -14.65718 | 38085 ft | 430 kts | 24° |
| 2026-05-07 00:45 | 34.84660 | -14.61926 | 38086 ft | 430 kts | 24° |
| 2026-05-07 00:46 | 34.89732 | -14.58158 | 38086 ft | 430 kts | 24° |
| 2026-05-07 00:46 | 34.94843 | -14.54355 | 38082 ft | 431 kts | 24° |
| 2026-05-07 00:47 | 34.99962 | -14.50540 | 38084 ft | 431 kts | 24° |
| 2026-05-07 00:47 | 35.05080 | -14.46721 | 38082 ft | 431 kts | 24° |
| 2026-05-07 00:48 | 35.10195 | -14.42898 | 38085 ft | 431 kts | 24° |
| 2026-05-07 00:48 | 35.15327 | -14.39057 | 38077 ft | 432 kts | 24° |
| 2026-05-07 00:49 | 35.20454 | -14.35214 | 38080 ft | 432 kts | 24° |
| 2026-05-07 00:49 | 35.25545 | -14.31392 | 38076 ft | 432 kts | 24° |
| 2026-05-07 00:50 | 35.30665 | -14.27542 | 38077 ft | 432 kts | 24° |
| 2026-05-07 00:50 | 35.35796 | -14.23678 | 38082 ft | 432 kts | 24° |
| 2026-05-07 00:51 | 35.40917 | -14.19816 | 38078 ft | 432 kts | 24° |
| 2026-05-07 00:51 | 35.46043 | -14.15945 | 38080 ft | 432 kts | 24° |
| 2026-05-07 00:52 | 35.51164 | -14.12071 | 38084 ft | 432 kts | 24° |
| 2026-05-07 00:52 | 35.56278 | -14.08196 | 38084 ft | 432 kts | 24° |
| 2026-05-07 00:53 | 35.61394 | -14.04314 | 38080 ft | 432 kts | 24° |
| 2026-05-07 00:53 | 35.66467 | -14.00459 | 38077 ft | 431 kts | 24° |
| 2026-05-07 00:54 | 35.71577 | -13.96570 | 38074 ft | 431 kts | 24° |
| 2026-05-07 00:54 | 35.76672 | -13.92686 | 38076 ft | 430 kts | 24° |
| 2026-05-07 00:55 | 35.81729 | -13.88826 | 38071 ft | 430 kts | 24° |
| 2026-05-07 00:55 | 35.86851 | -13.84910 | 38069 ft | 430 kts | 24° |
| 2026-05-07 00:56 | 35.91929 | -13.81022 | 38064 ft | 429 kts | 24° |
| 2026-05-07 00:56 | 35.97006 | -13.77127 | 38062 ft | 429 kts | 24° |
| 2026-05-07 00:57 | 36.02081 | -13.73228 | 38056 ft | 429 kts | 24° |
| 2026-05-07 00:57 | 36.07123 | -13.69350 | 38054 ft | 429 kts | 24° |
| 2026-05-07 00:58 | 36.12196 | -13.65440 | 38041 ft | 430 kts | 24° |
| 2026-05-07 00:58 | 36.17268 | -13.61527 | 38056 ft | 430 kts | 24° |
| 2026-05-07 00:59 | 36.24883 | -13.55640 | 38055 ft | 430 kts | 24° |
| 2026-05-07 01:00 | 36.29961 | -13.51706 | 38063 ft | 431 kts | 24° |
| 2026-05-07 01:00 | 36.35045 | -13.47761 | 38065 ft | 431 kts | 24° |
| 2026-05-07 01:01 | 36.40129 | -13.43810 | 38068 ft | 431 kts | 24° |
| 2026-05-07 01:01 | 36.45201 | -13.39863 | 38070 ft | 430 kts | 24° |
| 2026-05-07 01:02 | 36.50283 | -13.35905 | 38074 ft | 430 kts | 24° |
| 2026-05-07 01:02 | 36.55368 | -13.32130 | 38073 ft | 426 kts | 20° |
| 2026-05-07 01:03 | 36.60664 | -13.28904 | 38069 ft | 422 kts | 18° |
| 2026-05-07 01:03 | 36.65980 | -13.25781 | 38062 ft | 422 kts | 18° |
| 2026-05-07 01:04 | 36.71288 | -13.22658 | 38059 ft | 421 kts | 18° |
| 2026-05-07 01:04 | 36.76592 | -13.19533 | 38059 ft | 421 kts | 18° |
| 2026-05-07 01:05 | 36.81887 | -13.16406 | 38055 ft | 421 kts | 18° |
| 2026-05-07 01:05 | 36.86281 | -13.13808 | 38051 ft | 420 kts | 18° |
| 2026-05-07 01:06 | 36.91571 | -13.10675 | 38049 ft | 420 kts | 18° |
| 2026-05-07 01:06 | 36.96853 | -13.07544 | 38044 ft | 420 kts | 18° |
| 2026-05-07 01:07 | 37.02139 | -13.04404 | 38043 ft | 420 kts | 18° |
| 2026-05-07 01:07 | 37.07424 | -13.01260 | 38040 ft | 420 kts | 18° |
| 2026-05-07 01:08 | 37.12675 | -12.98131 | 38043 ft | 421 kts | 18° |
| 2026-05-07 01:08 | 37.17969 | -12.94972 | 38045 ft | 421 kts | 18° |
| 2026-05-07 01:09 | 37.23260 | -12.91811 | 38046 ft | 421 kts | 18° |
| 2026-05-07 01:09 | 37.28546 | -12.88648 | 38045 ft | 422 kts | 18° |
| 2026-05-07 01:10 | 37.33848 | -12.85471 | 38036 ft | 422 kts | 18° |
| 2026-05-07 01:10 | 37.39159 | -12.82282 | 38039 ft | 422 kts | 18° |
| 2026-05-07 01:11 | 37.44430 | -12.79112 | 38036 ft | 423 kts | 18° |
| 2026-05-07 01:11 | 37.49746 | -12.75911 | 38034 ft | 423 kts | 18° |
| 2026-05-07 01:12 | 37.55058 | -12.72706 | 38032 ft | 423 kts | 18° |
| 2026-05-07 01:12 | 37.60384 | -12.69489 | 38040 ft | 424 kts | 18° |
| 2026-05-07 01:13 | 37.65705 | -12.66268 | 38033 ft | 424 kts | 19° |
| 2026-05-07 01:13 | 37.71035 | -12.63037 | 38037 ft | 425 kts | 19° |
| 2026-05-07 01:14 | 37.76368 | -12.59799 | 38037 ft | 425 kts | 19° |
| 2026-05-07 01:14 | 37.81674 | -12.56572 | 38034 ft | 426 kts | 19° |
| 2026-05-07 01:15 | 37.87017 | -12.53318 | 38033 ft | 426 kts | 19° |
| 2026-05-07 01:15 | 37.92366 | -12.50055 | 38034 ft | 427 kts | 19° |
| 2026-05-07 01:16 | 37.97726 | -12.46779 | 38034 ft | 427 kts | 19° |
| 2026-05-07 01:16 | 38.03080 | -12.43502 | 38037 ft | 428 kts | 20° |
| 2026-05-07 01:17 | 38.08443 | -12.40213 | 38035 ft | 428 kts | 20° |
| 2026-05-07 01:17 | 38.13807 | -12.36919 | 38037 ft | 428 kts | 20° |
| 2026-05-07 01:18 | 38.19178 | -12.33615 | 38024 ft | 428 kts | 20° |
| 2026-05-07 01:18 | 38.24545 | -12.30308 | 38035 ft | 429 kts | 20° |
| 2026-05-07 01:19 | 38.29892 | -12.27007 | 38030 ft | 429 kts | 20° |
| 2026-05-07 01:19 | 38.35261 | -12.23689 | 38031 ft | 429 kts | 20° |
| 2026-05-07 01:20 | 38.40628 | -12.20365 | 38037 ft | 429 kts | 20° |
| 2026-05-07 01:20 | 38.46001 | -12.17032 | 38025 ft | 429 kts | 20° |
| 2026-05-07 01:21 | 38.51366 | -12.13699 | 38024 ft | 429 kts | 20° |
| 2026-05-07 01:21 | 38.56704 | -12.10376 | 38024 ft | 429 kts | 20° |
| 2026-05-07 01:22 | 38.62071 | -12.07033 | 38019 ft | 429 kts | 20° |
| 2026-05-07 01:22 | 38.67434 | -12.03684 | 38013 ft | 429 kts | 21° |
| 2026-05-07 01:23 | 38.72805 | -12.00324 | 38015 ft | 429 kts | 21° |
| 2026-05-07 01:23 | 38.78180 | -11.96956 | 38012 ft | 430 kts | 21° |
| 2026-05-07 01:24 | 38.83557 | -11.93581 | 38013 ft | 430 kts | 21° |
| 2026-05-07 01:24 | 38.88941 | -11.90196 | 38010 ft | 431 kts | 21° |
| 2026-05-07 01:25 | 38.94329 | -11.86802 | 38009 ft | 431 kts | 21° |
| 2026-05-07 01:25 | 38.99688 | -11.83422 | 38009 ft | 432 kts | 21° |
| 2026-05-07 01:26 | 39.05089 | -11.80009 | 38009 ft | 432 kts | 21° |
| 2026-05-07 01:26 | 39.10491 | -11.76591 | 38009 ft | 433 kts | 21° |
| 2026-05-07 01:27 | 39.15903 | -11.73160 | 38011 ft | 434 kts | 21° |
| 2026-05-07 01:27 | 39.21322 | -11.69717 | 38010 ft | 434 kts | 21° |
| 2026-05-07 01:28 | 39.26716 | -11.66285 | 38009 ft | 435 kts | 21° |
| 2026-05-07 01:28 | 39.32141 | -11.62820 | 38012 ft | 436 kts | 23° |
| 2026-05-07 01:29 | 39.37296 | -11.58586 | 38008 ft | 442 kts | 33° |
| 2026-05-07 01:29 | 39.41894 | -11.53240 | 38006 ft | 448 kts | 43° |
| 2026-05-07 01:30 | 39.46163 | -11.47344 | 38007 ft | 449 kts | 42° |
| 2026-05-07 01:30 | 39.50449 | -11.41450 | 38009 ft | 449 kts | 43° |
| 2026-05-07 01:31 | 39.54741 | -11.35539 | 38004 ft | 450 kts | 43° |
| 2026-05-07 01:31 | 39.58994 | -11.29667 | 38001 ft | 450 kts | 43° |
| 2026-05-07 01:32 | 39.63284 | -11.23733 | 37995 ft | 451 kts | 43° |
| 2026-05-07 01:32 | 39.65429 | -11.20761 | 37756 ft | 451 kts | 43° |
| 2026-05-07 01:32 | 39.67574 | -11.17784 | 37234 ft | 451 kts | 42° |
| 2026-05-07 01:32 | 39.69711 | -11.14811 | 36514 ft | 451 kts | 41° |
| 2026-05-07 01:33 | 39.71848 | -11.11829 | 35768 ft | 450 kts | 41° |
| 2026-05-07 01:33 | 39.73978 | -11.08857 | 35039 ft | 449 kts | 40° |
| 2026-05-07 01:33 | 39.76102 | -11.05883 | 34331 ft | 447 kts | 39° |
| 2026-05-07 01:33 | 39.78212 | -11.02928 | 33570 ft | 444 kts | 39° |
| 2026-05-07 01:34 | 39.80324 | -10.99994 | 32772 ft | 442 kts | 39° |
| 2026-05-07 01:34 | 39.82422 | -10.97092 | 32002 ft | 439 kts | 39° |
| 2026-05-07 01:34 | 39.84516 | -10.94206 | 31220 ft | 437 kts | 39° |
| 2026-05-07 01:34 | 39.86606 | -10.91328 | 30412 ft | 436 kts | 39° |
| 2026-05-07 01:35 | 39.88681 | -10.88468 | 29537 ft | 434 kts | 39° |
| 2026-05-07 01:35 | 39.90749 | -10.85618 | 28619 ft | 431 kts | 40° |
| 2026-05-07 01:35 | 39.92807 | -10.82780 | 27728 ft | 429 kts | 41° |
| 2026-05-07 01:35 | 39.94819 | -10.79999 | 26973 ft | 425 kts | 41° |
| 2026-05-07 01:36 | 39.96826 | -10.77218 | 26381 ft | 417 kts | 42° |
| 2026-05-07 01:36 | 39.98816 | -10.74456 | 25788 ft | 409 kts | 42° |
| 2026-05-07 01:36 | 40.00752 | -10.71783 | 25236 ft | 402 kts | 43° |
| 2026-05-07 01:36 | 40.02630 | -10.69176 | 24722 ft | 395 kts | 43° |
| 2026-05-07 01:37 | 40.04504 | -10.66568 | 24452 ft | 392 kts | 43° |
| 2026-05-07 01:37 | 40.06379 | -10.63957 | 24219 ft | 394 kts | 44° |
| 2026-05-07 01:37 | 40.08252 | -10.61345 | 23981 ft | 393 kts | 44° |
| 2026-05-07 01:37 | 40.10111 | -10.58746 | 23748 ft | 392 kts | 44° |
| 2026-05-07 01:38 | 40.11972 | -10.56141 | 23506 ft | 390 kts | 44° |
| 2026-05-07 01:38 | 40.13819 | -10.53551 | 23232 ft | 389 kts | 44° |
| 2026-05-07 01:38 | 40.15658 | -10.50969 | 22951 ft | 387 kts | 45° |
| 2026-05-07 01:38 | 40.17493 | -10.48391 | 22670 ft | 386 kts | 45° |
| 2026-05-07 01:39 | 40.19320 | -10.45820 | 22413 ft | 384 kts | 45° |
| 2026-05-07 01:39 | 40.21113 | -10.43296 | 22137 ft | 383 kts | 45° |
| 2026-05-07 01:39 | 40.22919 | -10.40751 | 21870 ft | 382 kts | 45° |
| 2026-05-07 01:39 | 40.24721 | -10.38210 | 21609 ft | 380 kts | 45° |
| 2026-05-07 01:40 | 40.26517 | -10.35669 | 21341 ft | 379 kts | 45° |
| 2026-05-07 01:40 | 40.28302 | -10.33142 | 21080 ft | 378 kts | 45° |
| 2026-05-07 01:40 | 40.30086 | -10.30630 | 20821 ft | 376 kts | 45° |
| 2026-05-07 01:40 | 40.31863 | -10.28125 | 20569 ft | 375 kts | 45° |
| 2026-05-07 01:41 | 40.33637 | -10.25620 | 20314 ft | 374 kts | 45° |
| 2026-05-07 01:41 | 40.35406 | -10.23119 | 20062 ft | 373 kts | 45° |
| 2026-05-07 01:41 | 40.37167 | -10.20625 | 19813 ft | 372 kts | 45° |
| 2026-05-07 01:41 | 40.38922 | -10.18137 | 19563 ft | 371 kts | 45° |
| 2026-05-07 01:42 | 40.40674 | -10.15654 | 19316 ft | 370 kts | 45° |
| 2026-05-07 01:42 | 40.42415 | -10.13182 | 19075 ft | 368 kts | 46° |
| 2026-05-07 01:42 | 40.44155 | -10.10710 | 18844 ft | 368 kts | 46° |
| 2026-05-07 01:42 | 40.45887 | -10.08246 | 18592 ft | 367 kts | 46° |
| 2026-05-07 01:43 | 40.47619 | -10.05780 | 18353 ft | 366 kts | 46° |
| 2026-05-07 01:43 | 40.49345 | -10.03320 | 18098 ft | 365 kts | 46° |
| 2026-05-07 01:43 | 40.51058 | -10.00876 | 17822 ft | 364 kts | 46° |
| 2026-05-07 01:43 | 40.52770 | -9.98435 | 17551 ft | 363 kts | 46° |
| 2026-05-07 01:44 | 40.54477 | -9.95998 | 17285 ft | 361 kts | 46° |
| 2026-05-07 01:44 | 40.56176 | -9.93569 | 17031 ft | 360 kts | 46° |
| 2026-05-07 01:44 | 40.57866 | -9.91151 | 16756 ft | 359 kts | 46° |
| 2026-05-07 01:44 | 40.59536 | -9.88764 | 16497 ft | 358 kts | 46° |
| 2026-05-07 01:45 | 40.61222 | -9.86349 | 16239 ft | 357 kts | 46° |
| 2026-05-07 01:45 | 40.62899 | -9.83943 | 15980 ft | 356 kts | 47° |
| 2026-05-07 01:45 | 40.64572 | -9.81543 | 15726 ft | 355 kts | 47° |
| 2026-05-07 01:45 | 40.66239 | -9.79149 | 15470 ft | 354 kts | 47° |
| 2026-05-07 01:46 | 40.67898 | -9.76764 | 15220 ft | 353 kts | 47° |
| 2026-05-07 01:46 | 40.69558 | -9.74377 | 14971 ft | 352 kts | 47° |
| 2026-05-07 01:46 | 40.71215 | -9.71992 | 14724 ft | 351 kts | 47° |
| 2026-05-07 01:46 | 40.72859 | -9.69622 | 14476 ft | 350 kts | 47° |
| 2026-05-07 01:47 | 40.74504 | -9.67249 | 14231 ft | 350 kts | 47° |
| 2026-05-07 01:47 | 40.76121 | -9.64917 | 13999 ft | 349 kts | 47° |
| 2026-05-07 01:47 | 40.77753 | -9.62560 | 13759 ft | 347 kts | 47° |
| 2026-05-07 01:47 | 40.79398 | -9.60184 | 13492 ft | 346 kts | 47° |
| 2026-05-07 01:48 | 40.80998 | -9.57871 | 13219 ft | 345 kts | 47° |
| 2026-05-07 01:48 | 40.82612 | -9.55535 | 12951 ft | 343 kts | 47° |
| 2026-05-07 01:48 | 40.84219 | -9.53209 | 12689 ft | 343 kts | 48° |
| 2026-05-07 01:48 | 40.85822 | -9.50885 | 12425 ft | 342 kts | 48° |
| 2026-05-07 01:49 | 40.87421 | -9.48566 | 12159 ft | 340 kts | 48° |
| 2026-05-07 01:49 | 40.89005 | -9.46255 | 11894 ft | 339 kts | 48° |
| 2026-05-07 01:49 | 40.90595 | -9.43941 | 11657 ft | 339 kts | 48° |
| 2026-05-07 01:49 | 40.92183 | -9.41640 | 11399 ft | 339 kts | 48° |
| 2026-05-07 01:50 | 40.93769 | -9.39342 | 11143 ft | 338 kts | 49° |
| 2026-05-07 01:50 | 40.94840 | -9.37787 | 10998 ft | 337 kts | 49° |
| 2026-05-07 01:50 | 40.96508 | -9.34397 | 10939 ft | 333 kts | 72° |
| 2026-05-07 01:50 | 40.96880 | -9.32392 | 10939 ft | 332 kts | 85° |
| 2026-05-07 01:51 | 40.96923 | -9.29357 | 10937 ft | 330 kts | 92° |
| 2026-05-07 01:51 | 40.96899 | -9.26359 | 10934 ft | 330 kts | 93° |
| 2026-05-07 01:51 | 40.96876 | -9.23296 | 10938 ft | 330 kts | 93° |
| 2026-05-07 01:51 | 40.96853 | -9.20251 | 10937 ft | 329 kts | 93° |
| 2026-05-07 01:52 | 40.96840 | -9.18188 | 10933 ft | 329 kts | 93° |
| 2026-05-07 01:52 | 40.96835 | -9.17541 | 10933 ft | 330 kts | 93° |
| 2026-05-07 01:52 | 40.96817 | -9.14813 | 10915 ft | 329 kts | 93° |
| 2026-05-07 01:52 | 40.96797 | -9.11859 | 10644 ft | 321 kts | 93° |
| 2026-05-07 01:53 | 40.96777 | -9.08906 | 10312 ft | 312 kts | 93° |
| 2026-05-07 01:53 | 40.96757 | -9.06106 | 10024 ft | 303 kts | 93° |
| 2026-05-07 01:53 | 40.96735 | -9.03314 | 9643 ft | 297 kts | 94° |
| 2026-05-07 01:53 | 40.96714 | -9.00660 | 9236 ft | 285 kts | 94° |
| 2026-05-07 01:54 | 40.96693 | -8.98090 | 8837 ft | 273 kts | 94° |
| 2026-05-07 01:54 | 40.96671 | -8.95619 | 8402 ft | 265 kts | 94° |
| 2026-05-07 01:54 | 40.96649 | -8.93212 | 7965 ft | 258 kts | 93° |
| 2026-05-07 01:54 | 40.96627 | -8.90859 | 7535 ft | 253 kts | 93° |
| 2026-05-07 01:55 | 40.96603 | -8.88557 | 7106 ft | 248 kts | 93° |
| 2026-05-07 01:55 | 40.96582 | -8.86302 | 6685 ft | 243 kts | 93° |
| 2026-05-07 01:55 | 40.96560 | -8.84091 | 6336 ft | 237 kts | 93° |
| 2026-05-07 01:55 | 40.96537 | -8.81942 | 6045 ft | 229 kts | 93° |
| 2026-05-07 01:56 | 40.96514 | -8.79856 | 5796 ft | 229 kts | 93° |
| 2026-05-07 01:56 | 40.96490 | -8.77761 | 5540 ft | 226 kts | 92° |
| 2026-05-07 01:56 | 40.96466 | -8.75672 | 5280 ft | 226 kts | 92° |
| 2026-05-07 01:56 | 40.96520 | -8.73597 | 5026 ft | 226 kts | 82° |
| 2026-05-07 01:57 | 40.96824 | -8.71561 | 4784 ft | 225 kts | 79° |
| 2026-05-07 01:57 | 40.97132 | -8.69564 | 4528 ft | 224 kts | 79° |
| 2026-05-07 01:57 | 40.97440 | -8.67549 | 4269 ft | 223 kts | 78° |
| 2026-05-07 01:57 | 40.97744 | -8.65541 | 4034 ft | 222 kts | 78° |
| 2026-05-07 01:58 | 40.98153 | -8.63592 | 3996 ft | 221 kts | 60° |
| 2026-05-07 01:58 | 40.99226 | -8.62164 | 4000 ft | 222 kts | 26° |
| 2026-05-07 01:58 | 41.00742 | -8.61784 | 3999 ft | 222 kts | 352° |
| 2026-05-07 01:58 | 41.02240 | -8.62177 | 3997 ft | 223 kts | 348° |
| 2026-05-07 01:59 | 41.03748 | -8.62602 | 3991 ft | 216 kts | 348° |
| 2026-05-07 01:59 | 41.05160 | -8.62994 | 3917 ft | 201 kts | 348° |
| 2026-05-07 01:59 | 41.06504 | -8.63370 | 3687 ft | 193 kts | 348° |
| 2026-05-07 01:59 | 41.07756 | -8.63709 | 3509 ft | 176 kts | 348° |
| 2026-05-07 02:00 | 41.08963 | -8.64025 | 3241 ft | 176 kts | 349° |
| 2026-05-07 02:00 | 41.10156 | -8.64331 | 2947 ft | 174 kts | 349° |
| 2026-05-07 02:00 | 41.11314 | -8.64637 | 2655 ft | 162 kts | 349° |
| 2026-05-07 02:00 | 41.12413 | -8.64884 | 2456 ft | 162 kts | 350° |
| 2026-05-07 02:01 | 41.13513 | -8.65154 | 2277 ft | 160 kts | 349° |
| 2026-05-07 02:01 | 41.14568 | -8.65433 | 2124 ft | 145 kts | 348° |
| 2026-05-07 02:01 | 41.15549 | -8.65690 | 1971 ft | 144 kts | 348° |
| 2026-05-07 02:01 | 41.16525 | -8.65952 | 1812 ft | 141 kts | 348° |
| 2026-05-07 02:02 | 41.17488 | -8.66226 | 1585 ft | 140 kts | 347° |
| 2026-05-07 02:02 | 41.18432 | -8.66481 | 1408 ft | 140 kts | 348° |
| 2026-05-07 02:02 | 41.19397 | -8.66731 | 1238 ft | 141 kts | 347° |
| 2026-05-07 02:02 | 41.20340 | -8.66978 | 1008 ft | 140 kts | 348° |
| 2026-05-07 02:03 | 41.21298 | -8.67212 | 742 ft | 139 kts | 349° |
| 2026-05-07 02:03 | 41.22252 | -8.67455 | 526 ft | 141 kts | 349° |
| 2026-05-07 02:03 | 41.23211 | -8.67709 | 316 ft | 141 kts | 348° |
| 2026-05-07 02:03 | 41.24156 | -8.67951 | 221 ft | 124 kts | 344° |
| 2026-05-07 02:04 | 41.24808 | -8.68125 | 198 ft | 57 kts | 347° |
| 2026-05-07 02:04 | 41.25086 | -8.68175 | 182 ft | 39 kts | 8° |
| 2026-05-07 02:04 | 41.25288 | -8.68103 | 176 ft | 15 kts | 41° |
| 2026-05-07 02:04 | 41.25284 | -8.68026 | 176 ft | 9 kts | 152° |
| 2026-05-07 02:05 | 41.25214 | -8.68003 | 181 ft | 13 kts | 169° |
| 2026-05-07 02:05 | 41.25085 | -8.67967 | 185 ft | 23 kts | 169° |
| 2026-05-07 02:05 | 41.24913 | -8.67922 | 193 ft | 27 kts | 163° |
| 2026-05-07 02:05 | 41.24744 | -8.67824 | 202 ft | 26 kts | 168° |
| 2026-05-07 02:06 | 41.24566 | -8.67777 | 213 ft | 27 kts | 169° |
| 2026-05-07 02:06 | 41.24380 | -8.67728 | 223 ft | 27 kts | 168° |
| 2026-05-07 02:06 | 41.24262 | -8.67632 | 232 ft | 12 kts | 125° |
| 2026-05-07 02:06 | 41.24214 | -8.67547 | 236 ft | 13 kts | 127° |
| 2026-05-07 02:07 | 41.24176 | -8.67464 | 237 ft | 10 kts | 92° |
| 2026-05-07 02:07 | 41.24190 | -8.67363 | 237 ft | 0 kts | 75° |